sensor_id;sensor_type;location;lat;lon;timestamp;P1;durP1;ratioP1;P2;durP2;ratioP2
69551;SDS011;63774;45.292;11.784;2022-12-18T00:01:29;3.60;;;2.00;;
69551;SDS011;63774;45.292;11.784;2022-12-18T00:03:58;5.40;;;2.20;;
69551;SDS011;63774;45.292;11.784;2022-12-18T00:06:25;4.50;;;1.90;;
69551;SDS011;63774;45.292;11.784;2022-12-18T00:08:51;4.50;;;2.20;;
69551;SDS011;63774;45.292;11.784;2022-12-18T00:11:18;4.10;;;1.90;;
69551;SDS011;63774;45.292;11.784;2022-12-18T00:13:45;6.70;;;2.00;;
69551;SDS011;63774;45.292;11.784;2022-12-18T00:16:12;4.30;;;2.00;;
69551;SDS011;63774;45.292;11.784;2022-12-18T00:18:39;4.10;;;1.80;;
69551;SDS011;63774;45.292;11.784;2022-12-18T00:21:06;3.90;;;1.80;;
69551;SDS011;63774;45.292;11.784;2022-12-18T00:23:35;3.80;;;2.00;;
69551;SDS011;63774;45.292;11.784;2022-12-18T00:26:02;3.40;;;1.80;;
69551;SDS011;63774;45.292;11.784;2022-12-18T00:28:30;3.90;;;2.00;;
69551;SDS011;63774;45.292;11.784;2022-12-18T00:31:06;4.80;;;2.10;;
69551;SDS011;63774;45.292;11.784;2022-12-18T00:33:34;4.80;;;2.10;;
69551;SDS011;63774;45.292;11.784;2022-12-18T00:38:34;4.70;;;2.10;;
69551;SDS011;63774;45.292;11.784;2022-12-18T00:41:00;3.90;;;1.80;;
69551;SDS011;63774;45.292;11.784;2022-12-18T00:43:25;3.30;;;1.70;;
69551;SDS011;63774;45.292;11.784;2022-12-18T00:45:51;5.00;;;1.90;;
69551;SDS011;63774;45.292;11.784;2022-12-18T00:48:16;3.90;;;2.40;;
69551;SDS011;63774;45.292;11.784;2022-12-18T00:50:42;3.70;;;1.90;;
69551;SDS011;63774;45.292;11.784;2022-12-18T00:53:07;3.60;;;2.30;;
69551;SDS011;63774;45.292;11.784;2022-12-18T00:55:33;3.60;;;1.90;;
69551;SDS011;63774;45.292;11.784;2022-12-18T00:57:59;3.40;;;1.70;;
69551;SDS011;63774;45.292;11.784;2022-12-18T01:00:24;4.00;;;1.90;;
69551;SDS011;63774;45.292;11.784;2022-12-18T01:02:50;2.60;;;1.90;;
69551;SDS011;63774;45.292;11.784;2022-12-18T01:05:15;2.80;;;1.90;;
69551;SDS011;63774;45.292;11.784;2022-12-18T01:07:41;3.60;;;1.90;;
69551;SDS011;63774;45.292;11.784;2022-12-18T01:10:07;2.80;;;1.80;;
69551;SDS011;63774;45.292;11.784;2022-12-18T01:12:36;4.00;;;1.90;;
69551;SDS011;63774;45.292;11.784;2022-12-18T01:15:02;4.90;;;2.10;;
69551;SDS011;63774;45.292;11.784;2022-12-18T01:17:29;3.30;;;2.00;;
69551;SDS011;63774;45.292;11.784;2022-12-18T01:19:55;3.80;;;2.20;;
69551;SDS011;63774;45.292;11.784;2022-12-18T01:22:20;3.60;;;2.20;;
69551;SDS011;63774;45.292;11.784;2022-12-18T01:24:46;3.10;;;1.80;;
69551;SDS011;63774;45.292;11.784;2022-12-18T01:27:11;3.50;;;2.00;;
69551;SDS011;63774;45.292;11.784;2022-12-18T01:29:37;3.60;;;1.90;;
69551;SDS011;63774;45.292;11.784;2022-12-18T01:32:02;3.30;;;2.00;;
69551;SDS011;63774;45.292;11.784;2022-12-18T01:34:28;3.20;;;1.90;;
69551;SDS011;63774;45.292;11.784;2022-12-18T01:36:53;3.30;;;1.80;;
69551;SDS011;63774;45.292;11.784;2022-12-18T01:39:19;3.50;;;2.00;;
69551;SDS011;63774;45.292;11.784;2022-12-18T01:41:45;4.00;;;1.80;;
69551;SDS011;63774;45.292;11.784;2022-12-18T01:52:46;2.60;;;1.80;;
69551;SDS011;63774;45.292;11.784;2022-12-18T01:55:16;3.70;;;2.10;;
69551;SDS011;63774;45.292;11.784;2022-12-18T01:57:44;3.20;;;2.00;;
69551;SDS011;63774;45.292;11.784;2022-12-18T02:00:11;2.40;;;1.60;;
69551;SDS011;63774;45.292;11.784;2022-12-18T02:02:43;3.20;;;1.80;;
69551;SDS011;63774;45.292;11.784;2022-12-18T02:05:10;3.60;;;1.80;;
69551;SDS011;63774;45.292;11.784;2022-12-18T02:08:00;3.30;;;1.80;;
69551;SDS011;63774;45.292;11.784;2022-12-18T02:10:31;1.90;;;1.30;;
69551;SDS011;63774;45.292;11.784;2022-12-18T02:15:51;2.50;;;1.60;;
69551;SDS011;63774;45.292;11.784;2022-12-18T02:18:33;3.50;;;1.90;;
69551;SDS011;63774;45.292;11.784;2022-12-18T02:29:00;2.80;;;1.80;;
69551;SDS011;63774;45.292;11.784;2022-12-18T02:31:32;2.70;;;1.80;;
69551;SDS011;63774;45.292;11.784;2022-12-18T02:34:03;2.90;;;1.70;;
69551;SDS011;63774;45.292;11.784;2022-12-18T02:36:31;2.90;;;1.70;;
69551;SDS011;63774;45.292;11.784;2022-12-18T02:38:59;2.80;;;1.70;;
69551;SDS011;63774;45.292;11.784;2022-12-18T02:41:26;3.50;;;1.90;;
69551;SDS011;63774;45.292;11.784;2022-12-18T02:43:55;4.40;;;1.90;;
69551;SDS011;63774;45.292;11.784;2022-12-18T02:48:55;2.50;;;1.80;;
69551;SDS011;63774;45.292;11.784;2022-12-18T02:52:12;4.70;;;1.70;;
69551;SDS011;63774;45.292;11.784;2022-12-18T02:56:59;2.70;;;1.80;;
69551;SDS011;63774;45.292;11.784;2022-12-18T02:59:38;2.70;;;1.80;;
69551;SDS011;63774;45.292;11.784;2022-12-18T03:04:58;2.20;;;1.50;;
69551;SDS011;63774;45.292;11.784;2022-12-18T03:07:47;2.50;;;1.70;;
69551;SDS011;63774;45.292;11.784;2022-12-18T03:10:19;3.30;;;1.90;;
69551;SDS011;63774;45.292;11.784;2022-12-18T03:12:52;2.90;;;1.90;;
69551;SDS011;63774;45.292;11.784;2022-12-18T03:15:24;3.00;;;1.80;;
69551;SDS011;63774;45.292;11.784;2022-12-18T03:18:06;2.60;;;1.80;;
69551;SDS011;63774;45.292;11.784;2022-12-18T03:20:35;2.50;;;1.50;;
69551;SDS011;63774;45.292;11.784;2022-12-18T03:23:11;4.30;;;1.90;;
69551;SDS011;63774;45.292;11.784;2022-12-18T03:25:42;2.60;;;1.70;;
69551;SDS011;63774;45.292;11.784;2022-12-18T03:28:12;3.50;;;1.90;;
69551;SDS011;63774;45.292;11.784;2022-12-18T03:30:40;3.20;;;1.90;;
69551;SDS011;63774;45.292;11.784;2022-12-18T03:33:10;2.90;;;1.80;;
69551;SDS011;63774;45.292;11.784;2022-12-18T03:35:42;3.90;;;1.90;;
69551;SDS011;63774;45.292;11.784;2022-12-18T03:38:09;2.80;;;1.60;;
69551;SDS011;63774;45.292;11.784;2022-12-18T03:46:14;2.70;;;1.70;;
69551;SDS011;63774;45.292;11.784;2022-12-18T03:49:19;2.80;;;1.80;;
69551;SDS011;63774;45.292;11.784;2022-12-18T03:51:57;2.50;;;1.70;;
69551;SDS011;63774;45.292;11.784;2022-12-18T03:54:28;2.50;;;1.80;;
69551;SDS011;63774;45.292;11.784;2022-12-18T03:57:06;2.60;;;1.80;;
69551;SDS011;63774;45.292;11.784;2022-12-18T03:59:36;3.00;;;1.60;;
69551;SDS011;63774;45.292;11.784;2022-12-18T04:02:03;2.70;;;1.90;;
69551;SDS011;63774;45.292;11.784;2022-12-18T04:04:31;2.30;;;1.70;;
69551;SDS011;63774;45.292;11.784;2022-12-18T04:06:58;2.70;;;1.90;;
69551;SDS011;63774;45.292;11.784;2022-12-18T04:09:23;2.40;;;1.50;;
69551;SDS011;63774;45.292;11.784;2022-12-18T04:11:51;2.20;;;1.70;;
69551;SDS011;63774;45.292;11.784;2022-12-18T04:14:17;4.30;;;1.90;;
69551;SDS011;63774;45.292;11.784;2022-12-18T04:16:43;2.50;;;1.70;;
69551;SDS011;63774;45.292;11.784;2022-12-18T04:19:08;3.30;;;1.70;;
69551;SDS011;63774;45.292;11.784;2022-12-18T04:21:34;2.60;;;1.60;;
69551;SDS011;63774;45.292;11.784;2022-12-18T04:23:59;3.20;;;1.90;;
69551;SDS011;63774;45.292;11.784;2022-12-18T04:26:24;2.30;;;1.50;;
69551;SDS011;63774;45.292;11.784;2022-12-18T04:28:50;2.80;;;1.80;;
69551;SDS011;63774;45.292;11.784;2022-12-18T04:31:15;2.80;;;1.70;;
69551;SDS011;63774;45.292;11.784;2022-12-18T04:33:41;3.00;;;1.70;;
69551;SDS011;63774;45.292;11.784;2022-12-18T04:36:06;2.40;;;1.80;;
69551;SDS011;63774;45.292;11.784;2022-12-18T04:38:32;2.90;;;1.80;;
69551;SDS011;63774;45.292;11.784;2022-12-18T04:40:58;3.50;;;1.60;;
69551;SDS011;63774;45.292;11.784;2022-12-18T04:43:23;2.70;;;1.50;;
69551;SDS011;63774;45.292;11.784;2022-12-18T04:45:49;2.20;;;1.70;;
69551;SDS011;63774;45.292;11.784;2022-12-18T04:48:14;2.40;;;1.70;;
69551;SDS011;63774;45.292;11.784;2022-12-18T04:50:40;2.40;;;1.50;;
69551;SDS011;63774;45.292;11.784;2022-12-18T04:53:05;2.70;;;1.70;;
69551;SDS011;63774;45.292;11.784;2022-12-18T04:55:31;2.10;;;1.50;;
69551;SDS011;63774;45.292;11.784;2022-12-18T04:57:56;2.90;;;1.80;;
69551;SDS011;63774;45.292;11.784;2022-12-18T05:00:22;2.40;;;1.60;;
69551;SDS011;63774;45.292;11.784;2022-12-18T05:02:47;2.90;;;1.70;;
69551;SDS011;63774;45.292;11.784;2022-12-18T05:05:13;2.90;;;1.80;;
69551;SDS011;63774;45.292;11.784;2022-12-18T05:07:38;2.30;;;1.60;;
69551;SDS011;63774;45.292;11.784;2022-12-18T05:10:04;2.60;;;1.60;;
69551;SDS011;63774;45.292;11.784;2022-12-18T05:12:32;2.60;;;1.70;;
69551;SDS011;63774;45.292;11.784;2022-12-18T05:14:57;2.60;;;1.70;;
69551;SDS011;63774;45.292;11.784;2022-12-18T05:17:23;3.20;;;1.70;;
69551;SDS011;63774;45.292;11.784;2022-12-18T05:19:48;3.10;;;1.60;;
69551;SDS011;63774;45.292;11.784;2022-12-18T05:22:14;2.60;;;1.50;;
69551;SDS011;63774;45.292;11.784;2022-12-18T05:24:39;2.70;;;1.90;;
69551;SDS011;63774;45.292;11.784;2022-12-18T05:27:05;2.60;;;1.60;;
69551;SDS011;63774;45.292;11.784;2022-12-18T05:29:31;3.20;;;1.70;;
69551;SDS011;63774;45.292;11.784;2022-12-18T05:31:56;1.80;;;1.40;;
69551;SDS011;63774;45.292;11.784;2022-12-18T05:34:22;3.10;;;1.90;;
69551;SDS011;63774;45.292;11.784;2022-12-18T05:36:47;3.40;;;1.70;;
69551;SDS011;63774;45.292;11.784;2022-12-18T05:39:13;3.50;;;2.00;;
69551;SDS011;63774;45.292;11.784;2022-12-18T05:41:38;3.30;;;1.80;;
69551;SDS011;63774;45.292;11.784;2022-12-18T05:44:04;3.20;;;1.50;;
69551;SDS011;63774;45.292;11.784;2022-12-18T05:46:30;2.80;;;1.70;;
69551;SDS011;63774;45.292;11.784;2022-12-18T05:48:58;2.60;;;1.70;;
69551;SDS011;63774;45.292;11.784;2022-12-18T05:51:32;2.70;;;1.60;;
69551;SDS011;63774;45.292;11.784;2022-12-18T05:54:18;2.50;;;1.60;;
69551;SDS011;63774;45.292;11.784;2022-12-18T05:56:43;3.30;;;1.80;;
69551;SDS011;63774;45.292;11.784;2022-12-18T05:59:09;3.10;;;1.70;;
69551;SDS011;63774;45.292;11.784;2022-12-18T06:01:34;3.60;;;2.00;;
69551;SDS011;63774;45.292;11.784;2022-12-18T06:04:00;2.00;;;1.40;;
69551;SDS011;63774;45.292;11.784;2022-12-18T06:06:26;2.50;;;1.60;;
69551;SDS011;63774;45.292;11.784;2022-12-18T06:08:53;2.70;;;1.90;;
69551;SDS011;63774;45.292;11.784;2022-12-18T06:11:20;2.40;;;1.50;;
69551;SDS011;63774;45.292;11.784;2022-12-18T06:13:51;2.60;;;1.70;;
69551;SDS011;63774;45.292;11.784;2022-12-18T06:16:18;2.50;;;1.50;;
69551;SDS011;63774;45.292;11.784;2022-12-18T06:18:44;2.70;;;1.60;;
69551;SDS011;63774;45.292;11.784;2022-12-18T06:21:09;3.20;;;1.60;;
69551;SDS011;63774;45.292;11.784;2022-12-18T06:23:35;3.10;;;2.00;;
69551;SDS011;63774;45.292;11.784;2022-12-18T06:26:04;2.70;;;1.50;;
69551;SDS011;63774;45.292;11.784;2022-12-18T06:28:31;2.70;;;1.80;;
69551;SDS011;63774;45.292;11.784;2022-12-18T06:30:57;2.40;;;1.60;;
69551;SDS011;63774;45.292;11.784;2022-12-18T06:33:25;2.80;;;1.60;;
69551;SDS011;63774;45.292;11.784;2022-12-18T06:35:53;2.70;;;1.80;;
69551;SDS011;63774;45.292;11.784;2022-12-18T06:38:19;2.60;;;1.60;;
69551;SDS011;63774;45.292;11.784;2022-12-18T06:40:44;2.50;;;1.60;;
69551;SDS011;63774;45.292;11.784;2022-12-18T06:43:10;2.30;;;1.70;;
69551;SDS011;63774;45.292;11.784;2022-12-18T06:45:35;2.50;;;1.60;;
69551;SDS011;63774;45.292;11.784;2022-12-18T06:48:01;3.60;;;1.90;;
69551;SDS011;63774;45.292;11.784;2022-12-18T06:50:26;2.10;;;1.30;;
69551;SDS011;63774;45.292;11.784;2022-12-18T06:52:52;3.60;;;1.50;;
69551;SDS011;63774;45.292;11.784;2022-12-18T06:55:17;2.90;;;1.80;;
69551;SDS011;63774;45.292;11.784;2022-12-18T06:57:44;2.40;;;1.50;;
69551;SDS011;63774;45.292;11.784;2022-12-18T07:00:10;3.80;;;1.70;;
69551;SDS011;63774;45.292;11.784;2022-12-18T07:02:36;3.10;;;1.60;;
69551;SDS011;63774;45.292;11.784;2022-12-18T07:05:01;2.40;;;1.60;;
69551;SDS011;63774;45.292;11.784;2022-12-18T07:07:27;2.90;;;1.70;;
69551;SDS011;63774;45.292;11.784;2022-12-18T07:09:53;2.90;;;1.60;;
69551;SDS011;63774;45.292;11.784;2022-12-18T07:12:18;2.20;;;1.50;;
69551;SDS011;63774;45.292;11.784;2022-12-18T07:14:44;2.20;;;1.60;;
69551;SDS011;63774;45.292;11.784;2022-12-18T07:17:09;3.20;;;1.80;;
69551;SDS011;63774;45.292;11.784;2022-12-18T07:19:35;2.50;;;1.70;;
69551;SDS011;63774;45.292;11.784;2022-12-18T07:22:00;2.70;;;1.60;;
69551;SDS011;63774;45.292;11.784;2022-12-18T07:24:26;2.50;;;1.50;;
69551;SDS011;63774;45.292;11.784;2022-12-18T07:26:52;2.80;;;1.80;;
69551;SDS011;63774;45.292;11.784;2022-12-18T07:29:18;2.80;;;1.60;;
69551;SDS011;63774;45.292;11.784;2022-12-18T07:31:43;2.90;;;1.70;;
69551;SDS011;63774;45.292;11.784;2022-12-18T07:34:09;2.30;;;1.40;;
69551;SDS011;63774;45.292;11.784;2022-12-18T07:36:38;2.70;;;1.60;;
69551;SDS011;63774;45.292;11.784;2022-12-18T07:39:04;2.60;;;1.60;;
69551;SDS011;63774;45.292;11.784;2022-12-18T07:41:30;3.10;;;1.70;;
69551;SDS011;63774;45.292;11.784;2022-12-18T07:43:56;2.90;;;1.70;;
69551;SDS011;63774;45.292;11.784;2022-12-18T07:46:21;3.10;;;1.90;;
69551;SDS011;63774;45.292;11.784;2022-12-18T07:48:47;2.60;;;1.70;;
69551;SDS011;63774;45.292;11.784;2022-12-18T07:51:13;2.70;;;1.50;;
69551;SDS011;63774;45.292;11.784;2022-12-18T07:53:39;3.00;;;1.70;;
69551;SDS011;63774;45.292;11.784;2022-12-18T07:56:06;3.10;;;1.70;;
69551;SDS011;63774;45.292;11.784;2022-12-18T07:58:34;2.50;;;1.40;;
69551;SDS011;63774;45.292;11.784;2022-12-18T08:03:33;3.10;;;1.80;;
69551;SDS011;63774;45.292;11.784;2022-12-18T08:06:06;2.30;;;1.70;;
69551;SDS011;63774;45.292;11.784;2022-12-18T08:08:36;3.10;;;1.80;;
69551;SDS011;63774;45.292;11.784;2022-12-18T08:11:02;2.90;;;1.70;;
69551;SDS011;63774;45.292;11.784;2022-12-18T08:13:28;3.30;;;1.80;;
69551;SDS011;63774;45.292;11.784;2022-12-18T08:16:01;3.50;;;2.00;;
69551;SDS011;63774;45.292;11.784;2022-12-18T08:18:28;2.90;;;1.50;;
69551;SDS011;63774;45.292;11.784;2022-12-18T08:20:55;2.90;;;1.80;;
69551;SDS011;63774;45.292;11.784;2022-12-18T08:23:21;3.40;;;1.70;;
69551;SDS011;63774;45.292;11.784;2022-12-18T08:25:47;4.50;;;2.10;;
69551;SDS011;63774;45.292;11.784;2022-12-18T08:28:13;2.60;;;1.70;;
69551;SDS011;63774;45.292;11.784;2022-12-18T08:30:41;3.60;;;1.70;;
69551;SDS011;63774;45.292;11.784;2022-12-18T08:33:07;3.90;;;1.80;;
69551;SDS011;63774;45.292;11.784;2022-12-18T08:35:36;3.30;;;1.70;;
69551;SDS011;63774;45.292;11.784;2022-12-18T08:38:02;3.80;;;1.90;;
69551;SDS011;63774;45.292;11.784;2022-12-18T08:40:28;3.30;;;1.60;;
69551;SDS011;63774;45.292;11.784;2022-12-18T08:42:54;3.70;;;2.00;;
69551;SDS011;63774;45.292;11.784;2022-12-18T08:45:38;3.20;;;1.90;;
69551;SDS011;63774;45.292;11.784;2022-12-18T08:48:03;5.40;;;1.80;;
69551;SDS011;63774;45.292;11.784;2022-12-18T08:50:29;3.50;;;2.10;;
69551;SDS011;63774;45.292;11.784;2022-12-18T08:52:54;3.60;;;1.80;;
69551;SDS011;63774;45.292;11.784;2022-12-18T08:55:20;3.00;;;1.90;;
69551;SDS011;63774;45.292;11.784;2022-12-18T08:57:47;4.10;;;2.10;;
69551;SDS011;63774;45.292;11.784;2022-12-18T09:00:14;3.90;;;2.20;;
69551;SDS011;63774;45.292;11.784;2022-12-18T09:02:40;3.60;;;1.90;;
69551;SDS011;63774;45.292;11.784;2022-12-18T09:05:05;4.70;;;2.10;;
69551;SDS011;63774;45.292;11.784;2022-12-18T09:07:31;3.10;;;1.80;;
69551;SDS011;63774;45.292;11.784;2022-12-18T09:09:57;3.00;;;1.80;;
69551;SDS011;63774;45.292;11.784;2022-12-18T09:12:22;3.00;;;1.90;;
69551;SDS011;63774;45.292;11.784;2022-12-18T09:14:48;3.60;;;2.00;;
69551;SDS011;63774;45.292;11.784;2022-12-18T09:17:13;2.60;;;1.50;;
69551;SDS011;63774;45.292;11.784;2022-12-18T09:19:39;2.80;;;1.90;;
69551;SDS011;63774;45.292;11.784;2022-12-18T09:22:05;3.70;;;2.10;;
69551;SDS011;63774;45.292;11.784;2022-12-18T09:24:30;3.70;;;1.90;;
69551;SDS011;63774;45.292;11.784;2022-12-18T09:26:56;3.50;;;1.70;;
69551;SDS011;63774;45.292;11.784;2022-12-18T09:29:21;3.00;;;1.80;;
69551;SDS011;63774;45.292;11.784;2022-12-18T09:31:47;2.10;;;1.50;;
69551;SDS011;63774;45.292;11.784;2022-12-18T09:34:14;2.90;;;1.60;;
69551;SDS011;63774;45.292;11.784;2022-12-18T09:36:40;3.50;;;2.00;;
69551;SDS011;63774;45.292;11.784;2022-12-18T09:39:06;3.20;;;1.90;;
69551;SDS011;63774;45.292;11.784;2022-12-18T09:47:04;2.90;;;1.80;;
69551;SDS011;63774;45.292;11.784;2022-12-18T09:49:34;2.80;;;1.80;;
69551;SDS011;63774;45.292;11.784;2022-12-18T09:52:11;3.40;;;2.00;;
69551;SDS011;63774;45.292;11.784;2022-12-18T09:54:40;5.50;;;2.00;;
69551;SDS011;63774;45.292;11.784;2022-12-18T09:57:17;2.90;;;1.70;;
69551;SDS011;63774;45.292;11.784;2022-12-18T09:59:50;2.60;;;1.70;;
69551;SDS011;63774;45.292;11.784;2022-12-18T10:02:37;2.70;;;1.80;;
69551;SDS011;63774;45.292;11.784;2022-12-18T10:05:06;3.60;;;2.00;;
69551;SDS011;63774;45.292;11.784;2022-12-18T10:10:31;3.60;;;2.00;;
69551;SDS011;63774;45.292;11.784;2022-12-18T10:13:02;3.20;;;1.80;;
69551;SDS011;63774;45.292;11.784;2022-12-18T10:15:52;3.30;;;2.00;;
69551;SDS011;63774;45.292;11.784;2022-12-18T10:20:58;3.00;;;1.70;;
69551;SDS011;63774;45.292;11.784;2022-12-18T10:23:31;2.90;;;1.80;;
69551;SDS011;63774;45.292;11.784;2022-12-18T10:26:06;3.90;;;1.70;;
69551;SDS011;63774;45.292;11.784;2022-12-18T10:28:36;2.50;;;1.50;;
69551;SDS011;63774;45.292;11.784;2022-12-18T10:31:37;3.10;;;1.80;;
69551;SDS011;63774;45.292;11.784;2022-12-18T10:33:55;3.40;;;1.70;;
69551;SDS011;63774;45.292;11.784;2022-12-18T10:36:22;3.00;;;1.70;;
69551;SDS011;63774;45.292;11.784;2022-12-18T10:38:49;2.90;;;1.80;;
69551;SDS011;63774;45.292;11.784;2022-12-18T10:43:43;2.70;;;1.50;;
69551;SDS011;63774;45.292;11.784;2022-12-18T10:51:04;2.80;;;1.80;;
69551;SDS011;63774;45.292;11.784;2022-12-18T10:53:31;4.10;;;1.80;;
69551;SDS011;63774;45.292;11.784;2022-12-18T10:55:59;3.30;;;1.60;;
69551;SDS011;63774;45.292;11.784;2022-12-18T10:58:29;3.00;;;1.80;;
69551;SDS011;63774;45.292;11.784;2022-12-18T11:01:10;3.20;;;2.00;;
69551;SDS011;63774;45.292;11.784;2022-12-18T11:03:40;3.30;;;2.00;;
69551;SDS011;63774;45.292;11.784;2022-12-18T11:06:10;3.20;;;1.90;;
69551;SDS011;63774;45.292;11.784;2022-12-18T11:08:37;2.70;;;1.80;;
69551;SDS011;63774;45.292;11.784;2022-12-18T11:11:04;3.90;;;2.00;;
69551;SDS011;63774;45.292;11.784;2022-12-18T11:13:39;2.60;;;1.80;;
69551;SDS011;63774;45.292;11.784;2022-12-18T11:16:05;2.70;;;1.70;;
69551;SDS011;63774;45.292;11.784;2022-12-18T11:18:34;3.00;;;1.80;;
69551;SDS011;63774;45.292;11.784;2022-12-18T11:23:34;3.00;;;1.90;;
69551;SDS011;63774;45.292;11.784;2022-12-18T11:26:02;3.00;;;1.70;;
69551;SDS011;63774;45.292;11.784;2022-12-18T11:33:56;3.30;;;1.80;;
69551;SDS011;63774;45.292;11.784;2022-12-18T11:36:39;2.50;;;1.70;;
69551;SDS011;63774;45.292;11.784;2022-12-18T11:39:18;2.80;;;1.80;;
69551;SDS011;63774;45.292;11.784;2022-12-18T11:42:03;2.90;;;1.90;;
69551;SDS011;63774;45.292;11.784;2022-12-18T11:44:51;2.90;;;1.80;;
69551;SDS011;63774;45.292;11.784;2022-12-18T11:50:14;2.80;;;1.70;;
69551;SDS011;63774;45.292;11.784;2022-12-18T11:52:43;2.80;;;1.70;;
69551;SDS011;63774;45.292;11.784;2022-12-18T11:55:54;3.10;;;1.70;;
69551;SDS011;63774;45.292;11.784;2022-12-18T12:00:54;3.10;;;1.60;;
69551;SDS011;63774;45.292;11.784;2022-12-18T12:06:06;2.50;;;1.60;;
69551;SDS011;63774;45.292;11.784;2022-12-18T12:14:17;2.80;;;1.50;;
69551;SDS011;63774;45.292;11.784;2022-12-18T12:26:57;2.60;;;1.50;;
69551;SDS011;63774;45.292;11.784;2022-12-18T12:29:58;3.20;;;1.70;;
69551;SDS011;63774;45.292;11.784;2022-12-18T12:40:36;2.80;;;1.80;;
69551;SDS011;63774;45.292;11.784;2022-12-18T12:48:40;3.60;;;1.90;;
69551;SDS011;63774;45.292;11.784;2022-12-18T12:51:12;2.30;;;1.50;;
69551;SDS011;63774;45.292;11.784;2022-12-18T12:53:43;3.60;;;1.70;;
69551;SDS011;63774;45.292;11.784;2022-12-18T12:56:11;2.40;;;1.70;;
69551;SDS011;63774;45.292;11.784;2022-12-18T12:58:43;2.30;;;1.50;;
69551;SDS011;63774;45.292;11.784;2022-12-18T13:06:56;3.40;;;1.60;;
69551;SDS011;63774;45.292;11.784;2022-12-18T13:09:30;2.70;;;1.60;;
69551;SDS011;63774;45.292;11.784;2022-12-18T13:12:01;2.20;;;1.40;;
69551;SDS011;63774;45.292;11.784;2022-12-18T13:14:47;3.00;;;2.00;;
69551;SDS011;63774;45.292;11.784;2022-12-18T13:19:47;3.20;;;1.70;;
69551;SDS011;63774;45.292;11.784;2022-12-18T13:22:58;3.00;;;1.50;;
69551;SDS011;63774;45.292;11.784;2022-12-18T13:28:16;3.10;;;1.70;;
69551;SDS011;63774;45.292;11.784;2022-12-18T13:30:46;2.90;;;1.60;;
69551;SDS011;63774;45.292;11.784;2022-12-18T13:35:40;2.70;;;1.70;;
69551;SDS011;63774;45.292;11.784;2022-12-18T13:43:24;3.00;;;1.80;;
69551;SDS011;63774;45.292;11.784;2022-12-18T13:48:39;2.70;;;1.70;;
69551;SDS011;63774;45.292;11.784;2022-12-18T13:51:23;2.70;;;1.90;;
69551;SDS011;63774;45.292;11.784;2022-12-18T13:56:32;4.10;;;2.30;;
69551;SDS011;63774;45.292;11.784;2022-12-18T13:59:05;3.50;;;2.00;;
69551;SDS011;63774;45.292;11.784;2022-12-18T14:01:36;2.80;;;1.90;;
69551;SDS011;63774;45.292;11.784;2022-12-18T14:04:20;3.40;;;2.10;;
69551;SDS011;63774;45.292;11.784;2022-12-18T14:07:13;3.10;;;1.90;;
69551;SDS011;63774;45.292;11.784;2022-12-18T14:10:03;4.30;;;2.10;;
69551;SDS011;63774;45.292;11.784;2022-12-18T14:12:28;2.90;;;1.90;;
69551;SDS011;63774;45.292;11.784;2022-12-18T14:20:47;2.90;;;1.80;;
69551;SDS011;63774;45.292;11.784;2022-12-18T14:25:58;4.40;;;1.90;;
69551;SDS011;63774;45.292;11.784;2022-12-18T14:28:25;3.10;;;1.80;;
69551;SDS011;63774;45.292;11.784;2022-12-18T14:30:51;3.90;;;2.20;;
69551;SDS011;63774;45.292;11.784;2022-12-18T14:41:14;5.90;;;2.50;;
69551;SDS011;63774;45.292;11.784;2022-12-18T14:43:43;5.20;;;2.40;;
69551;SDS011;63774;45.292;11.784;2022-12-18T14:48:51;5.40;;;3.10;;
69551;SDS011;63774;45.292;11.784;2022-12-18T14:51:17;5.00;;;2.90;;
69551;SDS011;63774;45.292;11.784;2022-12-18T14:53:46;4.50;;;2.90;;
69551;SDS011;63774;45.292;11.784;2022-12-18T14:56:17;5.50;;;3.10;;
69551;SDS011;63774;45.292;11.784;2022-12-18T14:58:49;5.40;;;3.50;;
69551;SDS011;63774;45.292;11.784;2022-12-18T15:01:26;5.60;;;3.40;;
69551;SDS011;63774;45.292;11.784;2022-12-18T15:03:54;6.00;;;3.50;;
69551;SDS011;63774;45.292;11.784;2022-12-18T15:06:26;7.10;;;3.50;;
69551;SDS011;63774;45.292;11.784;2022-12-18T15:08:51;5.20;;;3.40;;
69551;SDS011;63774;45.292;11.784;2022-12-18T15:11:27;5.40;;;3.40;;
69551;SDS011;63774;45.292;11.784;2022-12-18T15:13:59;6.20;;;3.70;;
69551;SDS011;63774;45.292;11.784;2022-12-18T15:16:49;9.70;;;3.20;;
69551;SDS011;63774;45.292;11.784;2022-12-18T15:19:20;5.10;;;3.50;;
69551;SDS011;63774;45.292;11.784;2022-12-18T15:21:47;5.50;;;3.40;;
69551;SDS011;63774;45.292;11.784;2022-12-18T15:24:20;7.20;;;3.50;;
69551;SDS011;63774;45.292;11.784;2022-12-18T15:26:51;8.70;;;4.40;;
69551;SDS011;63774;45.292;11.784;2022-12-18T15:29:22;7.30;;;4.10;;
69551;SDS011;63774;45.292;11.784;2022-12-18T15:32:05;6.10;;;4.00;;
69551;SDS011;63774;45.292;11.784;2022-12-18T15:34:40;6.20;;;4.50;;
69551;SDS011;63774;45.292;11.784;2022-12-18T15:37:07;7.20;;;4.50;;
69551;SDS011;63774;45.292;11.784;2022-12-18T15:39:33;7.30;;;4.60;;
69551;SDS011;63774;45.292;11.784;2022-12-18T15:42:01;6.70;;;4.40;;
69551;SDS011;63774;45.292;11.784;2022-12-18T15:44:45;7.90;;;4.70;;
69551;SDS011;63774;45.292;11.784;2022-12-18T15:47:11;8.10;;;4.40;;
69551;SDS011;63774;45.292;11.784;2022-12-18T15:49:37;9.80;;;4.80;;
69551;SDS011;63774;45.292;11.784;2022-12-18T15:52:03;7.80;;;4.50;;
69551;SDS011;63774;45.292;11.784;2022-12-18T15:54:30;7.30;;;4.20;;
69551;SDS011;63774;45.292;11.784;2022-12-18T15:57:14;7.20;;;4.50;;
69551;SDS011;63774;45.292;11.784;2022-12-18T15:59:48;8.90;;;5.00;;
69551;SDS011;63774;45.292;11.784;2022-12-18T16:02:18;8.20;;;4.70;;
69551;SDS011;63774;45.292;11.784;2022-12-18T16:04:47;7.50;;;4.80;;
69551;SDS011;63774;45.292;11.784;2022-12-18T16:07:14;10.30;;;5.10;;
69551;SDS011;63774;45.292;11.784;2022-12-18T16:09:40;8.70;;;4.90;;
69551;SDS011;63774;45.292;11.784;2022-12-18T16:12:10;7.70;;;5.00;;
69551;SDS011;63774;45.292;11.784;2022-12-18T16:14:43;8.00;;;5.00;;
69551;SDS011;63774;45.292;11.784;2022-12-18T16:17:09;8.60;;;4.90;;
69551;SDS011;63774;45.292;11.784;2022-12-18T16:19:36;8.30;;;5.00;;
69551;SDS011;63774;45.292;11.784;2022-12-18T16:22:02;7.60;;;5.00;;
69551;SDS011;63774;45.292;11.784;2022-12-18T16:24:29;7.00;;;5.10;;
69551;SDS011;63774;45.292;11.784;2022-12-18T16:26:58;8.20;;;5.00;;
69551;SDS011;63774;45.292;11.784;2022-12-18T16:29:25;8.50;;;5.40;;
69551;SDS011;63774;45.292;11.784;2022-12-18T16:32:01;7.80;;;5.00;;
69551;SDS011;63774;45.292;11.784;2022-12-18T16:34:31;8.30;;;5.10;;
69551;SDS011;63774;45.292;11.784;2022-12-18T16:36:59;8.90;;;5.20;;
69551;SDS011;63774;45.292;11.784;2022-12-18T16:39:27;8.70;;;5.10;;
69551;SDS011;63774;45.292;11.784;2022-12-18T16:41:53;8.40;;;5.00;;
69551;SDS011;63774;45.292;11.784;2022-12-18T16:44:19;8.00;;;4.90;;
69551;SDS011;63774;45.292;11.784;2022-12-18T16:46:45;8.40;;;5.20;;
69551;SDS011;63774;45.292;11.784;2022-12-18T16:49:11;7.40;;;4.70;;
69551;SDS011;63774;45.292;11.784;2022-12-18T16:51:38;8.50;;;5.80;;
69551;SDS011;63774;45.292;11.784;2022-12-18T16:54:04;8.70;;;5.00;;
69551;SDS011;63774;45.292;11.784;2022-12-18T16:56:30;8.90;;;5.40;;
69551;SDS011;63774;45.292;11.784;2022-12-18T16:58:56;8.20;;;5.20;;
69551;SDS011;63774;45.292;11.784;2022-12-18T17:01:23;8.40;;;5.30;;
69551;SDS011;63774;45.292;11.784;2022-12-18T17:03:50;8.70;;;5.50;;
69551;SDS011;63774;45.292;11.784;2022-12-18T17:06:17;8.30;;;5.70;;
69551;SDS011;63774;45.292;11.784;2022-12-18T17:08:43;7.10;;;4.90;;
69551;SDS011;63774;45.292;11.784;2022-12-18T17:11:09;7.70;;;4.90;;